Time,TemperatureF,DewpointF,PressureIn,WindDirection,WindDirectionDegrees,WindSpeedMPH,WindSpeedGustMPH,Humidity,HourlyPrecipIn,Conditions,Clouds,dailyrainin,SoftwareType,DateUTC
2013-03-05 00:01:00,46.0,44.0,29.75,NNE,16,0.0,1.0,92,0.00,,,0.00,,2013-03-05 06:01:00,
2013-03-05 00:11:00,46.0,44.0,29.75,NNE,16,0.0,1.0,92,0.00,,,0.00,,2013-03-05 06:11:00,
2013-03-05 00:22:00,45.0,43.0,29.75,NNE,16,0.0,1.0,92,0.00,,,0.00,,2013-03-05 06:22:00,
2013-03-05 00:31:00,45.0,43.0,29.75,ENE,58,0.0,1.0,92,0.00,,,0.00,,2013-03-05 06:31:00,
2013-03-05 00:41:00,45.0,43.0,29.75,ENE,58,0.0,1.0,92,0.00,,,0.00,,2013-03-05 06:41:00,
2013-03-05 00:52:00,45.0,43.0,29.74,NE,40,1.0,2.0,94,0.00,,,0.00,,2013-03-05 06:52:00,
2013-03-05 01:01:00,45.0,43.0,29.75,NNW,344,0.0,2.0,94,0.00,,,0.00,,2013-03-05 07:01:00,
2013-03-05 01:11:00,45.0,43.0,29.75,NNW,344,0.0,2.0,94,0.00,,,0.00,,2013-03-05 07:11:00,
2013-03-05 01:22:00,44.0,42.0,29.78,NW,308,0.0,1.0,94,0.00,,,0.00,,2013-03-05 07:22:00,
2013-03-05 01:31:00,43.0,41.0,29.78,NW,308,1.0,1.0,94,0.00,,,0.00,,2013-03-05 07:31:00,
2013-03-05 01:41:00,43.0,41.0,29.78,NW,308,1.0,1.0,94,0.00,,,0.00,,2013-03-05 07:41:00,
2013-03-05 01:52:00,42.0,40.0,29.79,North,356,0.0,1.0,94,0.00,,,0.00,,2013-03-05 07:52:00,
2013-03-05 02:02:00,43.0,42.0,29.80,NW,316,0.0,2.0,96,0.00,,,0.00,,2013-03-05 08:02:00,
2013-03-05 02:11:00,43.0,42.0,29.80,NW,316,0.0,2.0,96,0.00,,,0.00,,2013-03-05 08:11:00,
2013-03-05 02:21:00,46.0,44.0,29.82,NW,323,4.0,9.0,94,0.00,,,0.00,,2013-03-05 08:21:00,
2013-03-05 02:31:00,46.0,44.0,29.83,WNW,293,2.0,6.0,92,0.00,,,0.00,,2013-03-05 08:31:00,
2013-03-05 02:41:00,46.0,44.0,29.83,WNW,293,2.0,6.0,92,0.00,,,0.00,,2013-03-05 08:41:00,
2013-03-05 02:52:00,45.0,43.0,29.83,WNW,302,5.0,12.0,92,0.00,,,0.00,,2013-03-05 08:52:00,
2013-03-05 03:01:00,46.0,44.0,29.84,NNW,327,5.0,13.0,91,0.00,,,0.00,,2013-03-05 09:01:00,
2013-03-05 03:11:00,46.0,44.0,29.84,NNW,327,5.0,13.0,91,0.00,,,0.00,,2013-03-05 09:11:00,
2013-03-05 03:21:00,45.0,41.0,29.84,WNW,284,7.0,18.0,86,0.00,,,0.00,,2013-03-05 09:21:00,
2013-03-05 03:31:00,45.0,38.0,29.86,WNW,295,7.0,15.0,77,0.00,,,0.00,,2013-03-05 09:31:00,
2013-03-05 03:42:00,45.0,38.0,29.86,WNW,295,7.0,15.0,77,0.00,,,0.00,,2013-03-05 09:42:00,
2013-03-05 03:52:00,44.0,36.0,29.85,NW,321,9.0,17.0,74,0.00,,,0.00,,2013-03-05 09:52:00,
2013-03-05 04:01:00,44.0,36.0,29.85,NW,321,9.0,17.0,74,0.00,,,0.00,,2013-03-05 10:01:00,
2013-03-05 04:11:00,44.0,36.0,29.85,NW,321,9.0,17.0,74,0.00,,,0.00,,2013-03-05 10:11:00,
2013-03-05 04:21:00,44.0,36.0,29.86,WNW,295,9.0,18.0,72,0.00,,,0.00,,2013-03-05 10:21:00,
2013-03-05 04:32:00,43.0,35.0,29.88,NW,323,8.0,17.0,73,0.00,,,0.00,,2013-03-05 10:32:00,
2013-03-05 04:42:00,43.0,35.0,29.88,NW,323,8.0,17.0,73,0.00,,,0.00,,2013-03-05 10:42:00,
2013-03-05 04:52:00,42.0,35.0,29.89,NNW,328,6.0,15.0,76,0.00,,,0.00,,2013-03-05 10:52:00,
2013-03-05 05:01:00,41.0,34.0,29.90,NW,318,9.0,18.0,75,0.00,,,0.00,,2013-03-05 11:01:00,
2013-03-05 05:11:00,41.0,34.0,29.90,NW,318,9.0,18.0,75,0.00,,,0.00,,2013-03-05 11:11:00,
2013-03-05 05:22:00,41.0,34.0,29.93,SE,141,9.0,19.0,75,0.00,,,0.00,,2013-03-05 11:22:00,
2013-03-05 05:32:00,40.0,35.0,29.95,WNW,301,7.0,15.0,82,0.01,,,0.01,,2013-03-05 11:32:00,
2013-03-05 05:42:00,40.0,35.0,29.95,WNW,301,7.0,15.0,82,0.01,,,0.01,,2013-03-05 11:42:00,
2013-03-05 05:52:00,39.0,35.0,29.95,NNW,343,9.0,21.0,86,0.03,,,0.03,,2013-03-05 11:52:00,
2013-03-05 06:02:00,38.0,35.0,29.97,WNW,301,6.0,17.0,89,0.04,,,0.04,,2013-03-05 12:02:00,
2013-03-05 06:12:00,38.0,35.0,29.97,WNW,301,6.0,17.0,89,0.04,,,0.04,,2013-03-05 12:12:00,
2013-03-05 06:22:00,37.0,35.0,29.97,NNW,333,2.0,14.0,91,0.04,,,0.04,,2013-03-05 12:22:00,
2013-03-05 06:32:00,37.0,35.0,29.97,NW,308,7.0,14.0,91,0.04,,,0.05,,2013-03-05 12:32:00,
2013-03-05 06:42:00,37.0,35.0,29.97,NW,308,7.0,14.0,91,0.04,,,0.05,,2013-03-05 12:42:00,
2013-03-05 06:52:00,37.0,35.0,29.97,NNW,333,4.0,10.0,92,0.02,,,0.05,,2013-03-05 12:52:00,
2013-03-05 07:02:00,37.0,35.0,29.98,NW,308,7.0,14.0,91,0.01,,,0.05,,2013-03-05 13:02:00,
2013-03-05 07:11:00,37.0,35.0,29.98,NW,308,7.0,14.0,91,0.01,,,0.05,,2013-03-05 13:11:00,
2013-03-05 07:21:00,37.0,35.0,30.00,North,352,8.0,17.0,91,0.01,,,0.05,,2013-03-05 13:21:00,
2013-03-05 07:32:00,37.0,35.0,30.00,NW,309,7.0,18.0,91,0.00,,,0.05,,2013-03-05 13:32:00,
2013-03-05 07:42:00,37.0,35.0,30.00,NW,309,7.0,18.0,91,0.00,,,0.05,,2013-03-05 13:42:00,
2013-03-05 07:52:00,37.0,35.0,30.00,NW,315,6.0,15.0,91,0.00,,,0.05,,2013-03-05 13:52:00,
2013-03-05 08:02:00,37.0,34.0,30.01,WNW,297,7.0,14.0,90,0.00,,,0.05,,2013-03-05 14:02:00,
2013-03-05 08:11:00,37.0,34.0,30.01,WNW,297,7.0,14.0,90,0.00,,,0.05,,2013-03-05 14:11:00,
2013-03-05 08:21:00,37.0,34.0,30.01,NW,309,9.0,14.0,89,0.00,,,0.05,,2013-03-05 14:21:00,
2013-03-05 08:32:00,38.0,34.0,30.02,NW,307,11.0,20.0,85,0.00,,,0.05,,2013-03-05 14:32:00,
2013-03-05 08:42:00,38.0,34.0,30.02,NW,307,11.0,20.0,85,0.00,,,0.05,,2013-03-05 14:42:00,
2013-03-05 08:52:00,38.0,34.0,30.03,NW,323,7.0,16.0,85,0.00,,,0.05,,2013-03-05 14:52:00,
2013-03-05 09:01:00,37.0,32.0,30.03,NNW,338,10.0,23.0,82,0.00,,,0.05,,2013-03-05 15:01:00,
2013-03-05 09:11:00,37.0,32.0,30.03,NNW,338,10.0,23.0,82,0.00,,,0.05,,2013-03-05 15:11:00,
2013-03-05 09:21:00,38.0,33.0,30.04,NW,320,7.0,21.0,81,0.00,,,0.05,,2013-03-05 15:21:00,
2013-03-05 09:32:00,39.0,33.0,30.04,NW,319,9.0,19.0,78,0.00,,,0.05,,2013-03-05 15:32:00,
2013-03-05 09:42:00,39.0,33.0,30.04,NW,319,9.0,19.0,78,0.00,,,0.05,,2013-03-05 15:42:00,
2013-03-05 09:52:00,39.0,31.0,30.05,WNW,287,13.0,23.0,74,0.00,,,0.05,,2013-03-05 15:52:00,
2013-03-05 10:01:00,39.0,31.0,30.06,NW,309,10.0,23.0,74,0.00,,,0.05,,2013-03-05 16:01:00,
2013-03-05 10:11:00,39.0,31.0,30.06,NW,309,10.0,23.0,74,0.00,,,0.05,,2013-03-05 16:11:00,
2013-03-05 10:21:00,39.0,30.0,30.06,NW,304,13.0,22.0,71,0.00,,,0.05,,2013-03-05 16:21:00,
2013-03-05 10:32:00,39.0,29.0,30.07,West,280,10.0,25.0,68,0.00,,,0.05,,2013-03-05 16:32:00,
2013-03-05 10:42:00,39.0,29.0,30.07,West,280,10.0,25.0,68,0.00,,,0.05,,2013-03-05 16:42:00,
2013-03-05 10:52:00,40.0,30.0,30.07,NW,312,10.0,19.0,67,0.00,,,0.05,,2013-03-05 16:52:00,
2013-03-05 11:01:00,40.0,30.0,30.08,NW,311,9.0,22.0,66,0.00,,,0.05,,2013-03-05 17:01:00,
2013-03-05 11:11:00,40.0,30.0,30.08,NW,311,9.0,22.0,66,0.00,,,0.05,,2013-03-05 17:11:00,
2013-03-05 11:21:00,40.0,30.0,30.08,NW,311,9.0,22.0,66,0.00,,,0.05,,2013-03-05 17:21:00,
2013-03-05 11:32:00,41.0,28.0,30.09,West,281,16.0,28.0,59,0.00,,,0.05,,2013-03-05 17:32:00,
2013-03-05 11:42:00,41.0,28.0,30.09,West,281,16.0,28.0,59,0.00,,,0.05,,2013-03-05 17:42:00,
2013-03-05 11:52:00,41.0,28.0,30.09,WNW,285,15.0,26.0,59,0.00,,,0.05,,2013-03-05 17:52:00,
2013-03-05 12:02:00,40.0,25.0,30.09,West,276,11.0,23.0,55,0.00,,,0.05,,2013-03-05 18:02:00,
2013-03-05 12:11:00,40.0,25.0,30.09,West,276,11.0,23.0,55,0.00,,,0.05,,2013-03-05 18:11:00,
2013-03-05 12:21:00,41.0,24.0,30.09,WNW,290,15.0,26.0,50,0.00,,,0.05,,2013-03-05 18:21:00,
2013-03-05 12:32:00,41.0,23.0,30.09,NW,304,11.0,26.0,49,0.00,,,0.05,,2013-03-05 18:32:00,
2013-03-05 12:42:00,41.0,23.0,30.09,NW,304,11.0,26.0,49,0.00,,,0.05,,2013-03-05 18:42:00,
2013-03-05 12:53:00,41.0,21.0,30.09,West,277,19.0,30.0,44,0.00,,,0.05,,2013-03-05 18:53:00,
2013-03-05 13:01:00,42.0,23.0,30.09,NW,311,10.0,25.0,46,0.00,,,0.05,,2013-03-05 19:01:00,
2013-03-05 13:11:00,42.0,23.0,30.09,NW,311,10.0,25.0,46,0.00,,,0.05,,2013-03-05 19:11:00,
2013-03-05 13:21:00,42.0,21.0,30.09,NW,314,13.0,26.0,43,0.00,,,0.05,,2013-03-05 19:21:00,
2013-03-05 13:32:00,42.0,20.0,30.09,NW,312,14.0,27.0,41,0.00,,,0.05,,2013-03-05 19:32:00,
2013-03-05 13:42:00,42.0,20.0,30.09,NW,312,14.0,27.0,41,0.00,,,0.05,,2013-03-05 19:42:00,
2013-03-05 13:52:00,43.0,22.0,30.09,NW,323,13.0,25.0,42,0.00,,,0.05,,2013-03-05 19:52:00,
2013-03-05 14:01:00,43.0,23.0,30.09,WNW,293,15.0,27.0,44,0.00,,,0.05,,2013-03-05 20:01:00,
2013-03-05 14:11:00,43.0,23.0,30.09,West,281,9.0,28.0,44,0.00,,,0.05,,2013-03-05 20:11:00,
2013-03-05 14:21:00,43.0,23.0,30.09,West,281,9.0,28.0,44,0.00,,,0.05,,2013-03-05 20:21:00,
2013-03-05 14:32:00,43.0,22.0,30.09,NW,323,11.0,23.0,42,0.00,,,0.05,,2013-03-05 20:32:00,
2013-03-05 14:41:00,43.0,22.0,30.09,NW,323,11.0,23.0,42,0.00,,,0.05,,2013-03-05 20:41:00,
2013-03-05 14:52:00,44.0,21.0,30.10,NW,316,10.0,24.0,39,0.00,,,0.05,,2013-03-05 20:52:00,
2013-03-05 15:01:00,44.0,21.0,30.10,WNW,302,10.0,28.0,39,0.00,,,0.05,,2013-03-05 21:01:00,
2013-03-05 15:11:00,44.0,21.0,30.10,WNW,302,10.0,28.0,39,0.00,,,0.05,,2013-03-05 21:11:00,
2013-03-05 15:21:00,45.0,22.0,30.11,WNW,299,12.0,20.0,39,0.00,,,0.05,,2013-03-05 21:21:00,
2013-03-05 15:31:00,44.0,22.0,30.11,WNW,299,9.0,27.0,41,0.00,,,0.05,,2013-03-05 21:31:00,
2013-03-05 15:42:00,44.0,22.0,30.11,WNW,299,9.0,27.0,41,0.00,,,0.05,,2013-03-05 21:42:00,
2013-03-05 15:52:00,44.0,21.0,30.11,NW,305,11.0,29.0,40,0.00,,,0.05,,2013-03-05 21:52:00,
2013-03-05 16:01:00,44.0,22.0,30.11,WNW,295,12.0,26.0,41,0.00,,,0.05,,2013-03-05 22:01:00,
2013-03-05 16:11:00,44.0,22.0,30.11,WNW,295,12.0,26.0,41,0.00,,,0.05,,2013-03-05 22:11:00,
2013-03-05 16:21:00,44.0,23.0,30.11,WNW,287,10.0,20.0,43,0.00,,,0.05,,2013-03-05 22:21:00,
2013-03-05 16:32:00,44.0,22.0,30.12,WNW,299,10.0,22.0,42,0.00,,,0.05,,2013-03-05 22:32:00,
2013-03-05 16:41:00,44.0,22.0,30.12,WNW,299,10.0,22.0,42,0.00,,,0.05,,2013-03-05 22:41:00,
2013-03-05 16:52:00,44.0,22.0,30.12,WNW,295,14.0,27.0,41,0.00,,,0.05,,2013-03-05 22:52:00,
2013-03-05 17:01:00,44.0,22.0,30.12,WNW,298,10.0,23.0,42,0.00,,,0.05,,2013-03-05 23:01:00,
2013-03-05 17:11:00,44.0,22.0,30.12,WNW,298,10.0,23.0,42,0.00,,,0.05,,2013-03-05 23:11:00,
2013-03-05 17:21:00,44.0,23.0,30.13,WNW,299,10.0,22.0,43,0.00,,,0.05,,2013-03-05 23:21:00,
2013-03-05 17:32:00,43.0,23.0,30.14,NNW,329,9.0,23.0,45,0.00,,,0.05,,2013-03-05 23:32:00,
2013-03-05 17:42:00,43.0,23.0,30.14,NNW,329,9.0,23.0,45,0.00,,,0.05,,2013-03-05 23:42:00,
2013-03-05 17:53:00,43.0,24.0,30.14,WNW,298,9.0,25.0,46,0.00,,,0.05,,2013-03-05 23:53:00,
2013-03-05 18:01:00,42.0,23.0,30.14,NW,307,8.0,19.0,47,0.00,,,0.05,,2013-03-06 00:01:00,
2013-03-05 18:11:00,42.0,23.0,30.14,NW,307,8.0,19.0,47,0.00,,,0.05,,2013-03-06 00:11:00,
2013-03-05 18:21:00,41.0,23.0,30.15,NW,312,10.0,20.0,49,0.00,,,0.05,,2013-03-06 00:21:00,
2013-03-05 18:32:00,41.0,23.0,30.15,NW,312,10.0,20.0,49,0.00,,,0.05,,2013-03-06 00:32:00,
2013-03-05 18:41:00,41.0,23.0,30.15,NW,312,10.0,20.0,49,0.00,,,0.05,,2013-03-06 00:41:00,
2013-03-05 18:52:00,41.0,24.0,30.17,NW,308,12.0,24.0,51,0.00,,,0.05,,2013-03-06 00:52:00,
2013-03-05 19:01:00,40.0,25.0,30.17,WNW,303,8.0,16.0,54,0.00,,,0.05,,2013-03-06 01:01:00,
2013-03-05 19:11:00,40.0,25.0,30.17,WNW,303,8.0,16.0,54,0.00,,,0.05,,2013-03-06 01:11:00,
2013-03-05 19:21:00,39.0,24.0,30.18,WNW,299,9.0,20.0,55,0.00,,,0.05,,2013-03-06 01:21:00,
2013-03-05 19:32:00,39.0,24.0,30.19,NNW,330,9.0,17.0,55,0.00,,,0.05,,2013-03-06 01:32:00,
2013-03-05 19:42:00,39.0,24.0,30.19,NNW,330,9.0,17.0,55,0.00,,,0.05,,2013-03-06 01:42:00,
2013-03-05 19:52:00,39.0,24.0,30.19,WNW,295,8.0,21.0,55,0.00,,,0.05,,2013-03-06 01:52:00,
2013-03-05 20:01:00,38.0,24.0,30.20,WNW,298,7.0,25.0,56,0.00,,,0.05,,2013-03-06 02:01:00,
2013-03-05 20:11:00,38.0,24.0,30.20,WNW,298,7.0,25.0,56,0.00,,,0.05,,2013-03-06 02:11:00,
2013-03-05 20:22:00,38.0,24.0,30.20,NW,321,6.0,12.0,57,0.00,,,0.05,,2013-03-06 02:22:00,
2013-03-05 20:32:00,38.0,24.0,30.21,NW,318,6.0,19.0,57,0.00,,,0.05,,2013-03-06 02:32:00,
2013-03-05 20:42:00,38.0,24.0,30.21,NW,318,6.0,19.0,57,0.00,,,0.05,,2013-03-06 02:42:00,
2013-03-05 20:52:00,37.0,23.0,30.21,NW,311,6.0,16.0,57,0.00,,,0.05,,2013-03-06 02:52:00,
2013-03-05 21:01:00,37.0,24.0,30.22,WNW,294,6.0,13.0,58,0.00,,,0.05,,2013-03-06 03:01:00,
2013-03-05 21:11:00,37.0,24.0,30.22,WNW,294,6.0,13.0,58,0.00,,,0.05,,2013-03-06 03:11:00,
2013-03-05 21:22:00,37.0,24.0,30.22,NW,312,8.0,14.0,59,0.00,,,0.05,,2013-03-06 03:22:00,
2013-03-05 21:32:00,37.0,24.0,30.23,NW,321,7.0,14.0,59,0.00,,,0.05,,2013-03-06 03:32:00,
2013-03-05 21:42:00,37.0,24.0,30.23,NW,321,7.0,14.0,59,0.00,,,0.05,,2013-03-06 03:42:00,
2013-03-05 21:52:00,36.0,23.0,30.23,NW,304,7.0,15.0,59,0.00,,,0.05,,2013-03-06 03:52:00,
2013-03-05 22:02:00,36.0,23.0,30.23,NW,312,6.0,15.0,60,0.00,,,0.05,,2013-03-06 04:02:00,
2013-03-05 22:11:00,36.0,23.0,30.23,NW,312,6.0,15.0,60,0.00,,,0.05,,2013-03-06 04:11:00,
2013-03-05 22:21:00,35.0,23.0,30.24,NW,304,3.0,11.0,61,0.00,,,0.05,,2013-03-06 04:21:00,
2013-03-05 22:32:00,35.0,23.0,30.24,NW,322,6.0,10.0,62,0.00,,,0.05,,2013-03-06 04:32:00,
2013-03-05 22:41:00,35.0,23.0,30.24,NW,322,6.0,10.0,62,0.00,,,0.05,,2013-03-06 04:41:00,
2013-03-05 22:52:00,34.0,22.0,30.24,WNW,298,9.0,17.0,61,0.00,,,0.05,,2013-03-06 04:52:00,
2013-03-05 23:01:00,34.0,22.0,30.24,NW,308,11.0,27.0,61,0.00,,,0.05,,2013-03-06 05:01:00,
2013-03-05 23:11:00,34.0,22.0,30.24,NW,308,11.0,27.0,61,0.00,,,0.05,,2013-03-06 05:11:00,
2013-03-05 23:22:00,34.0,22.0,30.25,NW,314,9.0,18.0,61,0.00,,,0.05,,2013-03-06 05:22:00,
2013-03-05 23:32:00,33.0,21.0,30.25,NW,321,9.0,19.0,62,0.00,,,0.05,,2013-03-06 05:32:00,
2013-03-05 23:42:00,33.0,21.0,30.25,NW,321,9.0,19.0,62,0.00,,,0.05,,2013-03-06 05:42:00,
2013-03-05 23:52:00,33.0,21.0,30.26,NW,308,8.0,14.0,62,0.00,,,0.05,,2013-03-06 05:52:00,